Time;durP1;ratioP1;P1;durP2;ratioP2;P2;SDS_P1;SDS_P2;PMS_P1;PMS_P2;Temp;Humidity;BMP_temperature;BMP_pressure;BME280_temperature;BME280_humidity;BME280_pressure;Samples;Min_cycle;Max_cycle;Signal;HPM_P1;HPM_P2
2022/05/27 00:00:13;;;;;;;3.92;3.02;;;;;;;11.29;67.47;97420.81;1754720;81;27422;-75
2022/05/27 00:02:41;;;;;;;4.65;2.47;;;;;;;11.21;67.61;97417.55;1754633;81;25894;-76
2022/05/27 00:05:08;;;;;;;4.72;3.17;;;;;;;11.21;67.82;97420.24;1754965;81;25881;-75
2022/05/27 00:07:35;;;;;;;4.35;2.70;;;;;;;11.18;67.84;97417.44;1754868;81;25741;-75
2022/05/27 00:10:02;;;;;;;4.97;2.90;;;;;;;11.10;67.85;97411.77;1755148;81;25641;-75
2022/05/27 00:12:28;;;;;;;5.65;2.85;;;;;;;11.09;67.99;97411.46;1755016;81;27450;-76
2022/05/27 00:14:55;;;;;;;9.38;2.92;;;;;;;11.05;68.02;97410.22;1754803;81;25865;-76
2022/05/27 00:17:22;;;;;;;6.20;3.40;;;;;;;11.03;68.18;97409.60;1754701;81;26662;-76
2022/05/27 00:19:49;;;;;;;5.20;2.80;;;;;;;11.04;68.37;97399.11;1754616;81;26545;-76
2022/05/27 00:22:16;;;;;;;3.77;2.67;;;;;;;11.03;68.36;97401.50;1754945;81;25742;-75
2022/05/27 00:24:42;;;;;;;5.47;2.55;;;;;;;10.98;68.43;97397.28;1730038;81;27586;-76
2022/05/27 00:27:09;;;;;;;3.45;2.47;;;;;;;10.97;68.56;97398.32;1754786;81;25812;-75
2022/05/27 00:29:36;;;;;;;4.30;2.77;;;;;;;10.96;68.62;97393.95;1756352;80;26485;-74
2022/05/27 00:32:05;;;;;;;7.22;2.42;;;;;;;10.91;68.56;97396.45;1758207;81;26380;-76
2022/05/27 00:34:32;;;;;;;4.12;2.52;;;;;;;10.85;68.61;97397.33;1807232;77;25523;-76
2022/05/27 00:37:05;;;;;;;4.60;2.37;;;;;;;10.77;68.55;97393.48;1848411;77;27549;-76
2022/05/27 00:39:33;;;;;;;;;;;;;;;10.73;68.68;97393.63;1851037;77;25617;-75
2022/05/27 00:42:01;;;;;;;5.75;2.85;;;;;;;10.62;69.09;97387.02;1848352;77;25704;-75
2022/05/27 00:44:28;;;;;;;2.87;2.33;;;;;;;10.60;69.03;97384.22;1848264;77;26464;-75
2022/05/27 00:46:59;;;;;;;6.78;2.17;;;;;;;10.64;69.17;97384.08;1848315;77;25673;-76
2022/05/27 00:49:28;;;;;;;10.20;2.33;;;;;;;10.59;69.12;97385.25;1848569;77;27377;-75
2022/05/27 00:52:11;;;;;;;4.00;2.12;;;;;;;10.58;69.25;97386.30;1848207;77;26094;-75
2022/05/27 00:54:40;;;;;;;4.05;2.30;;;;;;;10.58;69.27;97385.77;1848469;77;25715;-75
2022/05/27 00:57:12;;;;;;;3.08;2.33;;;;;;;10.56;69.33;97386.50;1848499;77;25679;-75
2022/05/27 00:59:53;;;;;;;5.10;2.25;;;;;;;10.62;69.35;97382.14;1819903;78;25768;-75
2022/05/27 01:02:20;;;;;;;2.85;2.55;;;;;;;10.62;69.43;97383.48;1819842;78;27409;-75
2022/05/27 01:04:48;;;;;;;5.78;2.50;;;;;;;10.61;69.58;97377.78;1819585;78;25971;-74
2022/05/27 01:07:15;;;;;;;4.72;2.50;;;;;;;10.65;69.70;97375.77;1819854;78;25756;-76
2022/05/27 01:09:46;;;;;;;2.58;1.95;;;;;;;10.69;69.83;97378.89;1819941;78;25766;-76
2022/05/27 01:12:47;;;;;;;5.92;2.40;;;;;;;10.74;69.84;97380.44;1819923;78;25811;-76
2022/05/27 01:15:48;;;;;;;2.42;2.22;;;;;;;10.79;69.77;97376.56;1819166;78;28011;-75
2022/05/27 01:21:54;;;;;;;6.30;2.50;;;;;;;10.88;70.06;97375.27;1819544;78;25820;-75
2022/05/27 01:24:54;;;;;;;3.35;2.30;;;;;;;10.95;70.09;97378.80;1819882;78;25755;-75
2022/05/27 01:27:50;;;;;;;6.03;2.15;;;;;;;10.95;70.30;97378.80;1819952;78;25768;-75
2022/05/27 01:30:28;;;;;;;2.65;1.77;;;;;;;10.99;70.43;97374.59;1818405;78;27365;-76
2022/05/27 01:33:26;;;;;;;4.65;3.17;;;;;;;11.05;70.53;97370.22;1701320;84;25746;-76
2022/05/27 01:36:19;;;;;;;5.28;4.08;;;;;;;11.05;70.56;97368.35;1684311;85;25752;-76
2022/05/27 01:39:00;;;;;;;6.62;3.25;;;;;;;11.07;70.57;97367.62;1621576;88;25777;-77
2022/05/27 01:42:04;;;;;;;3.33;2.30;;;;;;;11.09;70.60;97361.48;1618700;88;25804;-76
2022/05/27 01:44:50;;;;;;;4.85;2.30;;;;;;;11.08;70.33;97359.83;1621365;88;28099;-75
2022/05/27 01:47:34;;;;;;;3.75;2.17;;;;;;;11.12;70.23;97360.20;1615436;88;25813;-76
2022/05/27 01:50:15;;;;;;;6.25;2.80;;;;;;;11.18;70.16;97358.00;1620469;88;25920;-75
2022/05/27 01:52:55;;;;;;;5.05;2.12;;;;;;;11.23;70.23;97359.52;1588592;89;26530;-75
2022/05/27 01:56:08;;;;;;;6.33;2.47;;;;;;;11.25;70.21;97352.55;1591764;89;25877;-75
2022/05/27 01:58:43;;;;;;;3.20;2.20;;;;;;;11.28;70.26;97352.12;1581602;90;27371;-75
2022/05/27 02:01:15;;;;;;;2.47;2.25;;;;;;;11.30;70.27;97345.47;1584445;90;25774;-75
2022/05/27 02:03:46;;;;;;;7.35;2.42;;;;;;;11.33;70.29;97348.26;1582576;90;25844;-75
2022/05/27 02:06:21;;;;;;;3.67;2.00;;;;;;;11.36;70.37;97345.09;1584897;90;25948;-75
2022/05/27 02:09:03;;;;;;;3.37;1.87;;;;;;;11.40;70.42;97349.03;1574957;91;25817;-76
2022/05/27 02:11:30;;;;;;;5.15;1.98;;;;;;;11.38;70.40;97344.36;1569320;91;27357;-75
2022/05/27 02:14:14;;;;;;;3.85;2.10;;;;;;;11.37;70.46;97340.83;1593356;90;25787;-75
2022/05/27 02:16:51;;;;;;;3.22;1.70;;;;;;;11.39;70.46;97335.21;1649130;86;26442;-75
2022/05/27 02:19:37;;;;;;;3.77;2.10;;;;;;;11.39;70.48;97337.39;1639065;87;25815;-75
2022/05/27 02:22:17;;;;;;;3.45;2.20;;;;;;;11.42;70.39;97333.44;1639122;87;25859;-75
2022/05/27 02:24:58;;;;;;;2.95;2.00;;;;;;;11.46;70.47;97331.96;1639181;87;27577;-76
2022/05/27 02:27:32;;;;;;;3.08;2.10;;;;;;;11.45;70.77;97328.95;1637895;87;25793;-76
2022/05/27 02:30:03;;;;;;;4.00;2.40;;;;;;;11.43;70.84;97320.23;1618622;88;25826;-76
2022/05/27 02:32:35;;;;;;;3.47;1.90;;;;;;;11.39;70.95;97323.05;1612381;88;25967;-75
2022/05/27 02:35:22;;;;;;;2.67;1.82;;;;;;;11.37;71.00;97324.62;1607439;88;25605;-76
2022/05/27 02:37:53;;;;;;;2.62;1.92;;;;;;;11.36;71.03;97319.42;1586527;90;27456;-76
2022/05/27 02:40:36;;;;;;;3.20;2.20;;;;;;;11.30;70.95;97319.79;1586896;90;26427;-76
2022/05/27 02:43:08;;;;;;;3.50;1.80;;;;;;;11.26;70.96;97321.27;1605293;89;25412;-75
2022/05/27 02:46:04;;;;;;;3.15;1.85;;;;;;;11.24;70.96;97322.52;1589504;89;25741;-76
2022/05/27 02:49:00;;;;;;;2.72;1.90;;;;;;;11.22;71.05;97320.58;1591647;87;25849;-75
2022/05/27 02:51:47;;;;;;;2.02;1.52;;;;;;;11.20;71.11;97316.74;1594754;89;28258;-75
2022/05/27 02:54:22;;;;;;;2.02;1.60;;;;;;;11.17;71.16;97319.88;1610689;89;25782;-75
2022/05/27 02:57:06;;;;;;;2.92;2.17;;;;;;;11.16;71.21;97321.74;1593575;90;25743;-76
2022/05/27 02:59:36;;;;;;;2.40;1.55;;;;;;;11.12;71.22;97323.21;1567644;91;25815;-75
2022/05/27 03:02:12;;;;;;;3.02;1.55;;;;;;;11.11;71.21;97322.91;1567565;91;25800;-75
2022/05/27 03:04:44;;;;;;;3.35;1.70;;;;;;;11.12;71.25;97318.33;1567538;91;27640;-76
2022/05/27 03:07:53;;;;;;;2.80;1.55;;;;;;;11.10;71.19;97325.33;1542250;93;25853;-75
2022/05/27 03:10:43;;;;;;;2.25;1.30;;;;;;;11.08;71.26;97323.36;1494221;96;25808;-76
2022/05/27 03:13:47;;;;;;;5.03;1.70;;;;;;;11.03;71.37;97321.81;1494348;96;25843;-75
2022/05/27 03:16:31;;;;;;;2.98;1.67;;;;;;;11.01;71.40;97321.72;1495402;95;25896;-76
2022/05/27 03:19:15;;;;;;;2.12;1.72;;;;;;;11.02;71.44;97320.16;1495098;95;27428;-75
2022/05/27 03:22:06;;;;;;;2.40;1.60;;;;;;;11.00;71.46;97318.19;1495301;95;25965;-75
2022/05/27 03:24:47;;;;;;;3.55;1.87;;;;;;;11.02;71.50;97320.16;1450967;98;25824;-76
2022/05/27 03:27:37;;;;;;;2.10;1.30;;;;;;;11.02;71.60;97313.92;1442824;98;26516;-76
2022/05/27 03:30:17;;;;;;;3.42;1.92;;;;;;;11.00;71.60;97314.14;1427898;100;25883;-75
2022/05/27 03:32:49;;;;;;;2.60;1.80;;;;;;;11.00;71.68;97312.79;1390651;103;27493;-77
2022/05/27 03:35:24;;;;;;;8.43;2.20;;;;;;;10.97;71.73;97309.19;1391562;101;25854;-75
2022/05/27 03:38:01;;;;;;;4.58;1.67;;;;;;;10.95;71.83;97307.22;1430286;100;25915;-75
2022/05/27 03:40:36;;;;;;;4.40;2.27;;;;;;;10.98;71.92;97311.37;1428359;100;25948;-75
2022/05/27 03:43:03;;;;;;;7.87;2.10;;;;;;;11.04;71.94;97303.73;1430557;100;25889;-76
2022/05/27 03:45:30;;;;;;;3.85;1.98;;;;;;;11.10;71.92;97302.89;1430939;100;27536;-76
2022/05/27 03:47:56;;;;;;;8.33;1.82;;;;;;;11.15;71.87;97305.22;1450048;98;25904;-75
2022/05/27 03:50:26;;;;;;;3.15;1.75;;;;;;;11.19;71.78;97306.45;1446113;99;25886;-75
2022/05/27 03:52:55;;;;;;;3.90;1.82;;;;;;;11.22;71.82;97300.31;1446094;99;26536;-75
2022/05/27 03:55:26;;;;;;;5.37;2.20;;;;;;;11.25;71.87;97299.34;1446150;99;25817;-76
2022/05/27 03:57:54;;;;;;;4.92;2.22;;;;;;;11.29;71.86;97303.27;1446108;99;28270;-75
2022/05/27 04:00:21;;;;;;;3.60;2.20;;;;;;;11.35;71.99;97308.34;1446011;98;25982;-76
2022/05/27 04:02:47;;;;;;;6.25;2.45;;;;;;;11.38;72.12;97299.25;1490922;96;25631;-76
2022/05/27 04:05:17;;;;;;;6.28;2.77;;;;;;;11.45;72.06;97297.34;1537523;93;25906;-76
2022/05/27 04:07:45;;;;;;;3.77;2.83;;;;;;;11.53;72.08;97290.83;1539536;93;25822;-76
2022/05/27 04:10:13;;;;;;;7.33;2.80;;;;;;;11.60;72.02;97289.41;1539652;93;27610;-75
2022/05/27 04:12:39;;;;;;;5.72;3.05;;;;;;;11.68;71.83;97289.98;1539599;92;25809;-75
2022/05/27 04:15:06;;;;;;;4.00;2.42;;;;;;;11.76;71.88;97289.73;1549809;91;26588;-75
2022/05/27 04:17:33;;;;;;;4.35;2.77;;;;;;;11.83;71.92;97294.54;1608341;87;25783;-76
2022/05/27 04:20:10;;;;;;;5.12;2.98;;;;;;;11.90;71.89;97284.50;1642439;87;25816;-76
2022/05/27 04:22:38;;;;;;;8.05;3.65;;;;;;;12.01;71.67;97283.47;1626738;88;27558;-76
2022/05/27 04:25:07;;;;;;;5.83;3.95;;;;;;;12.11;71.58;97287.83;1626682;88;25397;-77
2022/05/27 04:27:34;;;;;;;6.87;4.40;;;;;;;12.17;71.56;97282.89;1626708;88;25500;-75
2022/05/27 04:30:01;;;;;;;4.47;3.30;;;;;;;12.25;71.30;97282.06;1629633;86;25848;-77
2022/05/27 04:32:27;;;;;;;9.80;4.17;;;;;;;12.35;71.05;97291.53;1708919;82;25840;-75
2022/05/27 04:34:55;;;;;;;12.13;4.12;;;;;;;12.42;70.93;97281.48;1740604;82;27604;-75
2022/05/27 04:37:24;;;;;;;5.83;4.17;;;;;;;12.49;70.92;97286.27;1740288;82;25726;-75
2022/05/27 04:39:51;;;;;;;5.72;3.37;;;;;;;12.56;70.87;97279.72;1740615;82;26190;-75
2022/05/27 04:42:18;;;;;;;6.58;2.80;;;;;;;12.62;70.93;97280.17;1740556;82;25942;-76
2022/05/27 04:44:45;;;;;;;6.30;3.10;;;;;;;12.71;70.80;97275.80;1740586;82;25821;-76
2022/05/27 04:47:11;;;;;;;9.13;3.20;;;;;;;12.79;70.66;97273.63;1740740;82;26612;-76
2022/05/27 04:49:51;;;;;;;8.58;2.95;;;;;;;12.88;70.50;97266.83;1740590;82;25331;-75
2022/05/27 04:52:31;;;;;;;7.25;2.83;;;;;;;12.98;70.54;97264.91;1740701;82;25698;-75
2022/05/27 04:55:02;;;;;;;6.12;2.22;;;;;;;13.08;70.15;97267.89;1723600;83;25759;-75
2022/05/27 04:57:33;;;;;;;5.50;2.80;;;;;;;13.18;69.87;97261.41;1740776;82;25452;-76
2022/05/27 05:00:03;;;;;;;2.65;1.75;;;;;;;13.28;69.61;97250.83;1739002;81;27450;-75
2022/05/27 05:02:30;;;;;;;3.02;1.72;;;;;;;13.40;69.38;97245.98;1666961;86;25959;-75
2022/05/27 05:04:57;;;;;;;2.27;1.30;;;;;;;13.55;69.20;97246.34;1667116;86;25743;-75
2022/05/27 05:07:25;;;;;;;6.37;1.50;;;;;;;13.70;69.00;97252.14;1667475;86;25860;-76
2022/05/27 05:09:52;;;;;;;2.90;1.35;;;;;;;13.81;68.75;97249.14;1667475;86;25803;-75
2022/05/27 05:12:24;;;;;;;3.15;1.70;;;;;;;13.91;68.39;97243.41;1667194;86;26874;-76
2022/05/27 05:14:52;;;;;;;1.98;1.35;;;;;;;14.01;68.20;97245.00;1674548;83;26272;-76
2022/05/27 05:17:20;;;;;;;3.40;1.40;;;;;;;14.10;67.97;97247.38;1721898;82;25758;-76
2022/05/27 05:19:47;;;;;;;3.60;1.60;;;;;;;14.18;67.53;97253.79;1729883;82;25788;-75
2022/05/27 05:22:14;;;;;;;3.22;1.30;;;;;;;14.25;67.41;97251.80;1729984;82;25801;-75
2022/05/27 05:24:41;;;;;;;3.33;1.20;;;;;;;14.34;67.09;97247.64;1729971;82;27416;-76
2022/05/27 05:27:07;;;;;;;1.32;1.12;;;;;;;14.40;66.97;97249.41;1730163;82;25706;-77
2022/05/27 05:29:34;;;;;;;3.33;1.60;;;;;;;14.47;66.39;97237.08;1730094;82;25961;-76
2022/05/27 05:32:01;;;;;;;3.92;1.20;;;;;;;14.54;66.12;97237.75;1727466;82;26362;-77
2022/05/27 05:34:27;;;;;;;2.40;1.20;;;;;;;14.60;66.02;97233.56;1727277;83;25941;-76
2022/05/27 05:36:54;;;;;;;2.10;0.90;;;;;;;14.69;65.73;97231.28;1727182;83;27609;-77
2022/05/27 05:39:21;;;;;;;4.42;1.10;;;;;;;14.76;65.62;97228.70;1727129;83;25778;-76
2022/05/27 05:42:01;;;;;;;1.35;1.20;;;;;;;14.86;65.42;97232.67;1727159;83;25745;-76
2022/05/27 05:44:30;;;;;;;2.42;1.10;;;;;;;14.94;65.28;97226.87;1727334;83;25839;-77
2022/05/27 05:46:57;;;;;;;4.08;1.50;;;;;;;15.04;65.07;97225.69;1727344;83;25903;-77
2022/05/27 05:49:24;;;;;;;1.20;1.10;;;;;;;15.11;64.93;97225.82;1727400;83;28410;-77
2022/05/27 05:51:52;;;;;;;1.87;1.05;;;;;;;15.20;64.76;97216.75;1727045;83;25791;-75
2022/05/27 05:54:20;;;;;;;3.42;1.50;;;;;;;15.27;64.59;97209.78;1727174;83;25789;-76
2022/05/27 05:56:48;;;;;;;6.17;1.50;;;;;;;15.35;64.26;97210.20;1713103;83;25772;-77
2022/05/27 05:59:17;;;;;;;6.60;1.85;;;;;;;15.41;64.08;97206.50;1739923;79;25694;-76
2022/05/27 06:01:44;;;;;;;3.25;1.55;;;;;;;15.47;63.80;97201.42;1802148;79;27471;-76
2022/05/27 06:04:11;;;;;;;2.22;1.85;;;;;;;15.54;63.63;97200.45;1801802;79;25650;-76
2022/05/27 06:06:39;;;;;;;3.83;1.57;;;;;;;15.58;63.45;97199.72;1802300;79;25658;-77
2022/05/27 06:09:07;;;;;;;3.62;1.30;;;;;;;15.64;63.28;97195.19;1801999;79;25831;-76
2022/05/27 06:11:38;;;;;;;4.10;1.52;;;;;;;15.71;63.00;97201.28;1802138;79;25729;-77
2022/05/27 06:14:05;;;;;;;3.25;1.30;;;;;;;15.77;62.71;97189.41;1802083;79;27345;-77
2022/05/27 06:16:33;;;;;;;1.37;1.15;;;;;;;15.84;62.62;97190.05;1801999;79;26352;-78
2022/05/27 06:18:59;;;;;;;3.25;1.20;;;;;;;15.89;62.24;97191.50;1802169;79;25841;-76
2022/05/27 06:21:27;;;;;;;2.08;0.80;;;;;;;15.99;62.17;97183.47;1802104;79;25749;-75
2022/05/27 06:23:53;;;;;;;3.37;1.20;;;;;;;16.10;62.02;97192.06;1802101;79;25710;-76
2022/05/27 06:26:20;;;;;;;1.95;1.07;;;;;;;16.18;61.65;97197.06;1802231;79;27354;-75
2022/05/27 06:34:23;;;;;;;3.98;1.17;;;;;;;16.45;60.65;97184.06;1762846;81;25739;-75
2022/05/27 06:36:58;;;;;;;2.27;0.88;;;;;;;16.55;60.45;97182.27;1796195;79;25520;-77
2022/05/27 06:39:26;;;;;;;3.05;0.80;;;;;;;16.63;60.05;97178.33;1732154;82;27376;-76
2022/05/27 06:41:53;;;;;;;2.47;1.02;;;;;;;16.70;59.59;97172.13;1785721;80;25706;-75
2022/05/27 06:44:21;;;;;;;1.37;1.05;;;;;;;16.79;59.53;97167.03;1785784;80;25765;-78
2022/05/27 06:46:51;;;;;;;2.33;0.80;;;;;;;16.88;59.33;97170.43;1785992;80;25831;-76
2022/05/27 06:49:19;;;;;;;1.87;0.90;;;;;;;16.96;58.85;97161.49;1785820;80;25756;-76
2022/05/27 06:51:47;;;;;;;1.10;0.75;;;;;;;17.03;58.65;97151.19;1785654;80;27454;-76
2022/05/27 06:54:15;;;;;;;3.80;1.00;;;;;;;17.10;58.28;97155.37;1785742;80;25814;-78
2022/05/27 06:56:45;;;;;;;3.30;1.00;;;;;;;17.17;57.95;97153.23;1785910;80;25768;-76
2022/05/27 06:59:14;;;;;;;1.92;0.80;;;;;;;17.23;57.64;97149.48;1785834;80;25643;-78
2022/05/27 07:01:41;;;;;;;2.02;0.90;;;;;;;17.26;57.36;97150.34;1785779;80;25706;-76
2022/05/27 07:04:08;;;;;;;3.80;0.90;;;;;;;17.29;57.06;97145.70;1785454;80;27392;-76
2022/05/27 07:06:40;;;;;;;3.60;0.95;;;;;;;17.34;56.97;97143.57;1785710;80;25694;-76
2022/05/27 07:09:08;;;;;;;3.12;0.80;;;;;;;17.36;56.67;97144.14;1720869;83;25745;-76
2022/05/27 07:11:37;;;;;;;4.92;1.00;;;;;;;17.40;56.53;97143.87;1721307;83;26355;-76
2022/05/27 07:14:03;;;;;;;4.87;1.20;;;;;;;17.44;56.58;97137.36;1721286;83;25791;-76
2022/05/27 07:16:30;;;;;;;4.17;0.95;;;;;;;17.46;56.48;97133.30;1677630;85;27363;-76
2022/05/27 07:18:57;;;;;;;2.20;0.90;;;;;;;17.51;56.34;97128.43;1720480;83;25817;-76
2022/05/27 07:21:25;;;;;;;3.10;1.10;;;;;;;17.54;56.21;97121.88;1688772;84;26484;-77
2022/05/27 07:23:53;;;;;;;0.70;0.70;;;;;;;17.58;55.96;97118.92;1703371;84;25745;-77
2022/05/27 07:26:21;;;;;;;1.72;0.78;;;;;;;17.62;55.72;97118.69;1703356;84;25980;-77
2022/05/27 07:28:48;;;;;;;3.08;1.00;;;;;;;17.73;55.72;97113.31;1706640;82;27511;-77
2022/05/27 07:31:17;;;;;;;4.05;1.00;;;;;;;17.86;55.58;97114.21;1727223;82;26742;-76
2022/05/27 07:33:45;;;;;;;1.85;1.05;;;;;;;17.97;55.37;97111.81;1722304;83;25815;-77
2022/05/27 07:36:13;;;;;;;4.58;1.15;;;;;;;18.08;55.27;97108.04;1665213;86;26429;-79
2022/05/27 07:38:40;;;;;;;1.92;1.12;;;;;;;18.21;55.10;97117.66;1665287;86;25807;-75
2022/05/27 07:41:06;;;;;;;3.42;0.90;;;;;;;18.36;55.02;97104.03;1665237;86;27452;-76
2022/05/27 07:43:33;;;;;;;1.42;1.00;;;;;;;18.49;54.60;97102.70;1664827;86;26122;-76
2022/05/27 07:46:01;;;;;;;3.58;1.20;;;;;;;18.65;54.38;97093.50;1664953;86;25820;-77
2022/05/27 07:48:27;;;;;;;2.47;0.85;;;;;;;18.81;53.78;97099.28;1665204;86;26488;-77
2022/05/27 07:50:54;;;;;;;1.65;1.27;;;;;;;19.11;53.59;97101.75;1665284;86;25974;-78
2022/05/27 07:53:22;;;;;;;4.42;0.82;;;;;;;19.26;52.83;97099.02;1665224;86;27545;-76
2022/05/27 07:55:49;;;;;;;3.92;1.20;;;;;;;19.28;52.59;97092.73;1665242;86;25803;-76
2022/05/27 07:58:15;;;;;;;1.20;0.85;;;;;;;19.26;52.23;97090.81;1665221;86;25751;-78
2022/05/27 08:00:42;;;;;;;1.75;1.20;;;;;;;19.25;52.31;97081.78;1724783;82;26555;-76
2022/05/27 08:03:08;;;;;;;1.87;1.10;;;;;;;19.29;52.12;97072.48;1725725;83;25797;-77
2022/05/27 08:05:36;;;;;;;3.35;1.00;;;;;;;19.51;51.99;97077.14;1725930;83;28310;-79
2022/05/27 08:08:03;;;;;;;1.75;1.12;;;;;;;19.83;51.62;97065.01;1725900;83;25864;-77
2022/05/27 08:10:33;;;;;;;3.75;0.95;;;;;;;20.34;51.63;97060.97;1726006;83;25779;-76
2022/05/27 08:13:00;;;;;;;2.35;0.90;;;;;;;20.89;51.32;97056.25;1725878;83;25809;-77
2022/05/27 08:15:28;;;;;;;2.27;1.05;;;;;;;21.32;50.88;97049.09;1725821;83;25816;-78
2022/05/27 08:17:55;;;;;;;3.98;0.98;;;;;;;21.40;50.44;97042.14;1725892;81;27548;-77
2022/05/27 08:20:27;;;;;;;2.25;0.90;;;;;;;21.44;49.76;97037.72;1725764;83;25805;-76
2022/05/27 08:22:54;;;;;;;1.87;1.13;;;;;;;21.44;49.76;97037.72;1726196;81;25741;-78
2022/05/27 08:25:23;;;;;;;2.08;1.02;;;;;;;21.36;48.40;97021.88;1725833;83;27019;-76
2022/05/27 08:27:50;;;;;;;4.90;1.42;;;;;;;21.36;48.40;97021.88;1725967;83;25911;-77
2022/05/27 08:30:22;;;;;;;1.87;0.90;;;;;;;21.76;48.45;97040.66;1725547;83;27430;-78
2022/05/27 08:32:48;;;;;;;1.90;0.80;;;;;;;22.00;48.09;97030.25;1752252;79;25810;-75
2022/05/27 08:38:07;;;;;;;2.87;1.20;;;;;;;22.29;47.35;97032.36;1801712;79;25689;-74
2022/05/27 08:40:52;;;;;;;1.72;0.90;;;;;;;22.40;45.89;97015.17;1771035;79;25895;-76
2022/05/27 08:44:04;;;;;;;5.72;0.70;;;;;;;22.15;46.00;97010.27;1802104;79;27457;-75
2022/05/27 08:47:09;;;;;;;3.25;1.00;;;;;;;22.62;45.95;97001.08;1799682;79;25697;-76
2022/05/27 08:49:40;;;;;;;1.30;1.00;;;;;;;23.03;45.22;96999.09;1802232;79;25709;-77
2022/05/27 08:52:24;;;;;;;5.08;1.12;;;;;;;23.39;44.38;96989.65;1802418;79;26566;-76
2022/05/27 08:55:04;;;;;;;3.60;1.12;;;;;;;23.28;44.37;96986.27;1800877;79;25818;-78
2022/05/27 09:00:24;;;;;;;2.45;1.25;;;;;;;23.32;44.00;96976.26;1801881;79;25627;-76
2022/05/27 09:03:05;;;;;;;4.65;1.15;;;;;;;23.84;43.88;96979.70;1770117;79;25779;-78
2022/05/27 09:05:37;;;;;;;3.05;1.00;;;;;;;24.47;43.68;96987.20;1800952;79;25851;-77
2022/05/27 09:08:23;;;;;;;9.53;1.00;;;;;;;24.73;42.33;96982.73;1802472;79;25942;-79
2022/05/27 09:11:01;;;;;;;1.67;0.85;;;;;;;25.04;41.46;96975.09;1802195;79;27589;-79
2022/05/27 09:13:41;;;;;;;2.70;0.90;;;;;;;25.14;41.16;96972.07;1795352;79;25693;-76
2022/05/27 09:16:25;;;;;;;1.37;0.95;;;;;;;25.20;40.95;96962.54;1799103;79;25703;-75
2022/05/27 09:19:17;;;;;;;3.47;0.90;;;;;;;25.56;40.79;96966.55;1800038;79;25751;-76
2022/05/27 09:21:58;;;;;;;3.47;1.00;;;;;;;25.85;40.16;96964.63;1802610;79;25626;-75
2022/05/27 09:24:35;;;;;;;1.47;0.90;;;;;;;26.14;39.96;96953.02;1802245;79;28475;-75
2022/05/27 09:27:28;;;;;;;2.72;1.20;;;;;;;26.46;39.12;96947.63;1798679;79;25910;-75
2022/05/27 09:30:03;;;;;;;4.87;0.90;;;;;;;26.59;39.17;96956.34;1795346;79;25784;-76
2022/05/27 09:32:43;;;;;;;3.27;1.10;;;;;;;26.74;38.44;96939.81;1801978;79;25784;-76
2022/05/27 09:35:21;;;;;;;4.00;1.10;;;;;;;26.63;38.33;96941.29;1767850;81;25575;-75
2022/05/27 09:37:52;;;;;;;2.98;0.80;;;;;;;26.61;37.94;96938.84;1766012;81;27530;-76
2022/05/27 09:40:46;;;;;;;2.13;0.80;;;;;;;26.71;37.39;96934.92;1769297;81;25821;-76
2022/05/27 09:43:30;;;;;;;1.55;0.80;;;;;;;26.40;37.15;96936.48;1707874;84;25902;-75
2022/05/27 09:46:02;;;;;;;3.95;0.98;;;;;;;26.26;37.66;96931.63;1649766;86;26399;-76
2022/05/27 09:48:29;;;;;;;2.30;0.98;;;;;;;26.56;37.64;96927.95;1650405;86;25762;-76
2022/05/27 09:51:03;;;;;;;4.85;0.80;;;;;;;26.77;37.69;96926.14;1650211;86;29434;-77
2022/05/27 09:53:40;;;;;;;1.02;0.72;;;;;;;26.76;37.18;96916.77;1650259;86;25839;-76
2022/05/27 09:56:11;;;;;;;2.67;1.32;;;;;;;26.76;37.38;96916.20;1648010;86;25795;-78
2022/05/27 09:58:42;;;;;;;5.00;1.00;;;;;;;26.90;37.05;96909.92;1599315;89;25864;-76
2022/05/27 10:01:24;;;;;;;2.87;1.10;;;;;;;26.75;36.67;96910.98;1524070;94;25756;-76
2022/05/27 10:04:04;;;;;;;3.52;0.80;;;;;;;26.53;36.52;96916.14;1524028;94;28250;-76
2022/05/27 10:06:34;;;;;;;3.42;0.90;;;;;;;26.38;36.82;96916.62;1523813;94;25873;-77
2022/05/27 10:09:06;;;;;;;2.30;0.90;;;;;;;26.12;36.67;96902.16;1523883;94;25807;-75
2022/05/27 10:11:36;;;;;;;1.90;0.98;;;;;;;25.81;36.74;96895.94;1472122;97;26490;-77
2022/05/27 10:14:28;;;;;;;1.80;0.88;;;;;;;25.66;37.41;96891.66;1475137;97;25904;-75
2022/05/27 10:17:09;;;;;;;10.95;1.02;;;;;;;25.95;37.88;96893.86;1494301;92;27412;-77
2022/05/27 10:19:39;;;;;;;1.65;0.93;;;;;;;26.25;37.35;96884.35;1543980;92;25763;-74
2022/05/27 10:22:25;;;;;;;4.30;1.20;;;;;;;26.19;36.91;96874.85;1544862;92;25825;-75
2022/05/27 10:25:13;;;;;;;1.92;0.80;;;;;;;26.00;36.44;96870.17;1536366;93;25754;-76
2022/05/27 10:27:54;;;;;;;1.10;1.00;;;;;;;25.52;36.43;96869.39;1536691;93;25798;-76
2022/05/27 10:30:31;;;;;;;3.12;1.10;;;;;;;24.99;36.44;96873.08;1536650;93;27452;-76
2022/05/27 10:33:23;;;;;;;3.80;0.90;;;;;;;24.78;37.36;96870.80;1536421;93;25920;-75
2022/05/27 10:35:52;;;;;;;1.15;0.90;;;;;;;24.78;37.56;96869.42;1536619;93;33122;-76
2022/05/27 10:38:39;;;;;;;7.47;1.17;;;;;;;24.61;37.86;96866.58;1536571;93;26499;-78
2022/05/27 10:41:28;;;;;;;4.25;1.42;;;;;;;24.43;37.66;96871.70;1535154;93;26826;-75
2022/05/27 10:44:14;;;;;;;2.45;0.95;;;;;;;24.38;37.92;96862.19;1536449;93;27505;-78
2022/05/27 10:46:52;;;;;;;3.77;1.00;;;;;;;24.33;38.10;96854.02;1536531;93;26614;-78
2022/05/27 10:49:50;;;;;;;2.17;1.20;;;;;;;24.30;38.22;96856.84;1508628;94;25872;-75
2022/05/27 10:52:59;;;;;;;2.20;1.22;;;;;;;24.23;38.01;96846.81;1508744;94;25839;-75
2022/05/27 10:55:43;;;;;;;4.30;0.93;;;;;;;24.10;38.21;96848.21;1530648;91;26354;-75
2022/05/27 11:02:07;;;;;;;1.85;0.82;;;;;;;23.98;38.86;96840.48;1563307;91;25908;-76
2022/05/27 11:05:23;;;;;;;2.35;0.90;;;;;;;24.11;39.11;96836.88;1599386;87;25834;-77
2022/05/27 11:08:12;;;;;;;4.67;1.12;;;;;;;24.14;39.02;96829.93;1637411;87;25871;-74
2022/05/27 11:10:44;;;;;;;2.45;0.82;;;;;;;24.08;38.72;96821.52;1634260;87;25823;-75
2022/05/27 11:17:17;;;;;;;4.50;1.10;;;;;;;24.00;39.01;96805.98;1747998;82;25871;-76
2022/05/27 11:20:24;;;;;;;1.98;0.90;;;;;;;24.12;39.25;96815.63;1678731;83;25652;-76
2022/05/27 11:23:22;;;;;;;3.80;1.20;;;;;;;24.14;39.09;96818.90;1690651;84;25761;-76
2022/05/27 11:26:00;;;;;;;3.72;0.70;;;;;;;24.16;39.18;96808.34;1690468;84;25734;-76
2022/05/27 11:28:48;;;;;;;2.85;0.90;;;;;;;24.18;38.74;96819.32;1581124;90;26879;-77
2022/05/27 11:31:41;;;;;;;1.95;1.02;;;;;;;24.27;38.53;96813.92;1580659;90;25848;-75
2022/05/27 11:34:30;;;;;;;2.67;0.68;;;;;;;24.30;38.85;96807.76;1578657;90;25790;-77
2022/05/27 11:37:20;;;;;;;8.73;1.25;;;;;;;24.46;38.59;96811.77;1575679;90;25808;-76
2022/05/27 11:40:01;;;;;;;3.02;1.07;;;;;;;24.30;38.47;96816.03;1578092;90;25570;-75
2022/05/27 11:43:18;;;;;;;4.67;1.10;;;;;;;24.08;38.34;96802.21;1533481;93;28702;-75
2022/05/27 11:46:22;;;;;;;7.05;1.30;;;;;;;24.08;38.54;96801.66;1565060;88;25948;-74
2022/05/27 11:49:29;;;;;;;3.60;1.20;;;;;;;24.07;38.28;96793.13;1614587;88;25884;-74
2022/05/27 11:52:09;;;;;;;2.67;1.45;;;;;;;23.96;38.45;96776.02;1614762;88;25820;-77
2022/05/27 11:55:27;;;;;;;4.60;1.30;;;;;;;23.78;38.88;96783.91;1613683;88;25908;-75
2022/05/27 11:58:39;;;;;;;3.15;0.80;;;;;;;23.63;38.97;96773.23;1614808;88;27474;-75
2022/05/27 12:01:26;;;;;;;3.35;1.17;;;;;;;23.40;39.07;96788.86;1611522;88;25803;-75
2022/05/27 12:06:49;;;;;;;3.12;0.88;;;;;;;23.20;39.29;96792.84;1603428;88;26530;-75
2022/05/27 12:09:39;;;;;;;2.22;0.85;;;;;;;23.16;39.41;96793.22;1612083;88;25824;-76
2022/05/27 12:12:11;;;;;;;3.65;1.10;;;;;;;23.12;39.41;96783.93;1610921;88;27263;-76
2022/05/27 12:14:51;;;;;;;2.20;0.98;;;;;;;23.06;39.58;96798.12;1543941;92;25822;-75
2022/05/27 12:17:22;;;;;;;3.37;1.10;;;;;;;22.98;39.42;96789.44;1552525;92;25823;-77
2022/05/27 12:20:00;;;;;;;2.00;1.35;;;;;;;22.90;39.66;96797.59;1553092;91;25901;-75
2022/05/27 12:22:33;;;;;;;1.65;1.02;;;;;;;22.74;39.70;96792.91;1510579;94;25630;-73
2022/05/27 12:25:04;;;;;;;3.90;0.90;;;;;;;22.66;39.98;96786.73;1510901;94;27687;-77
2022/05/27 12:27:34;;;;;;;1.80;0.72;;;;;;;22.60;40.10;96794.25;1510991;94;25857;-75
2022/05/27 12:30:03;;;;;;;3.77;1.30;;;;;;;22.50;40.22;96791.69;1510916;94;25945;-76
2022/05/27 12:32:30;;;;;;;4.20;1.35;;;;;;;22.38;40.31;96790.54;1510817;94;25855;-73
2022/05/27 12:35:28;;;;;;;4.97;0.90;;;;;;;22.31;40.56;96779.13;1510901;94;25787;-76
2022/05/27 12:38:08;;;;;;;2.00;1.00;;;;;;;22.32;40.69;96773.89;1500474;95;27422;-74